createdAt,value
2022-09-26T00:01:05.198Z,97481.16
2022-09-26T00:02:08.376Z,97468.09
2022-09-26T00:03:12.230Z,97470.25
2022-09-26T00:04:23.731Z,97469.53
2022-09-26T00:05:27.432Z,97465.34
2022-09-26T00:06:30.366Z,97465.34
2022-09-26T00:07:33.277Z,97468.09
2022-09-26T00:08:37.667Z,97465.97
2022-09-26T00:09:40.462Z,97464.63
2022-09-26T00:10:43.189Z,97471.47
2022-09-26T00:11:46.907Z,97469.53
2022-09-26T00:12:49.672Z,97469.97
2022-09-26T00:13:55.591Z,97467.09
2022-09-26T00:14:58.416Z,97475.16
2022-09-26T00:16:01.653Z,97468.22
2022-09-26T00:17:04.363Z,97474.22
2022-09-26T00:18:07.152Z,97465.25
2022-09-26T00:19:09.888Z,97459.03
2022-09-26T00:20:12.541Z,97467.88
2022-09-26T00:21:15.896Z,97458.91
2022-09-26T00:22:18.512Z,97461.06
2022-09-26T00:23:21.135Z,97461.66
2022-09-26T00:24:23.863Z,97463.13
2022-09-26T00:25:27.127Z,97467.06
2022-09-26T00:26:32.793Z,97456.88
2022-09-26T00:27:35.455Z,97458.19
2022-09-26T00:28:38.553Z,97450.66
2022-09-26T00:29:41.337Z,97443.62
2022-09-26T00:30:44.971Z,97444.84
2022-09-26T00:31:49.405Z,97443.41
2022-09-26T00:32:52.313Z,97442.78
2022-09-26T00:33:55.371Z,97442.78
2022-09-26T00:34:58.038Z,97440.03
2022-09-26T00:36:01.017Z,97443.72
2022-09-26T00:37:03.713Z,97445.75
2022-09-26T00:38:06.598Z,97446.59
2022-09-26T00:39:11.759Z,97444.44
2022-09-26T00:40:14.599Z,97437.41
2022-09-26T00:41:17.545Z,97439.44
2022-09-26T00:42:23.251Z,97431.19
2022-09-26T00:43:39.957Z,97438.22
2022-09-26T00:44:50.579Z,97427.81
2022-09-26T00:45:56.381Z,97422.94
2022-09-26T00:46:59.367Z,97422.94
2022-09-26T00:48:06.604Z,97418.72
2022-09-26T00:49:24.016Z,97436.78
2022-09-26T00:50:35.527Z,97433.41
2022-09-26T00:51:42.438Z,97430.56
2022-09-26T00:53:06.401Z,97431.78
2022-09-26T00:54:15.586Z,97421.47
2022-09-26T00:55:24.233Z,97418.94
2022-09-26T00:56:34.269Z,97420.28
2022-09-26T00:57:53.488Z,97418.22
2022-09-26T00:59:10.648Z,97414.88
2022-09-26T01:00:15.345Z,97410.41
2022-09-26T01:01:19.631Z,97410.09
2022-09-26T01:02:26.268Z,97410.19
2022-09-26T01:03:31.788Z,97416.31
2022-09-26T01:04:38.499Z,97410.59
2022-09-26T01:05:41.640Z,97415.91
2022-09-26T01:06:45.839Z,97413.25
2022-09-26T01:07:50.707Z,97407.03
2022-09-26T01:08:57.818Z,97414.47
2022-09-26T01:10:02.784Z,97404.78
2022-09-26T01:11:07.003Z,97407.66
2022-09-26T01:12:11.003Z,97411.72
2022-09-26T01:13:13.906Z,97410.28
2022-09-26T01:14:16.914Z,97412.53
2022-09-26T01:15:20.510Z,97412.03
2022-09-26T01:16:23.748Z,97413.25
2022-09-26T01:17:27.701Z,97416.63
2022-09-26T01:18:31.287Z,97416.63
2022-09-26T01:19:54.985Z,97411.72
2022-09-26T01:21:35.076Z,97411.72
2022-09-26T01:23:05.959Z,97406.19
2022-09-26T01:24:17.607Z,97399.38
2022-09-26T01:25:41.561Z,97406.31
2022-09-26T01:27:15.200Z,97402.84
2022-09-26T01:28:23.756Z,97396.81
2022-09-26T01:29:59.557Z,97399.38
2022-09-26T01:31:22.709Z,97398.78
2022-09-26T01:33:02.995Z,97396.63
2022-09-26T01:34:27.520Z,97398.78
2022-09-26T01:36:00.649Z,97398.88
2022-09-26T01:37:10.238Z,97387.84
2022-09-26T01:38:38.136Z,97400.59
2022-09-26T01:39:55.881Z,97391.44
2022-09-26T01:41:36.806Z,97394.37
2022-09-26T01:43:25.313Z,97390.72
2022-09-26T01:44:55.302Z,97375.41
2022-09-26T01:46:22.732Z,97388.56
2022-09-26T01:47:39.601Z,97382.97
2022-09-26T01:48:53.422Z,97382.25
2022-09-26T01:50:21.388Z,97380.81
2022-09-26T01:51:33.743Z,97376.03
2022-09-26T01:52:55.936Z,97374.62
2022-09-26T01:54:06.627Z,97375.19
2022-09-26T01:55:41.549Z,97371.84
2022-09-26T01:56:48.240Z,97368.47
2022-09-26T01:57:53.651Z,97357.47
2022-09-26T01:59:15.076Z,97362.44
2022-09-26T02:00:18.886Z,97360.44
2022-09-26T02:01:25.888Z,97350.94
2022-09-26T02:02:36.256Z,97351.66
2022-09-26T02:03:56.459Z,97354.31
2022-09-26T02:05:17.584Z,97352.97
2022-09-26T02:06:29.472Z,97363.19
2022-09-26T02:07:41.136Z,97353.47
2022-09-26T02:08:46.605Z,97367.38
2022-09-26T02:09:59.509Z,97353.47
2022-09-26T02:11:12.646Z,97359.00
2022-09-26T02:12:23.873Z,97352.03
2022-09-26T02:13:47.170Z,97341.22
2022-09-26T02:14:53.205Z,97349.09
2022-09-26T02:16:02.343Z,97346.84
2022-09-26T02:17:10.757Z,97346.75
2022-09-26T02:18:24.202Z,97348.91
2022-09-26T02:19:31.041Z,97341.56
2022-09-26T02:20:38.197Z,97335.53
2022-09-26T02:21:42.805Z,97337.59
2022-09-26T02:22:46.095Z,97336.03
2022-09-26T02:23:51.048Z,97340.84
2022-09-26T02:24:54.184Z,97353.78
2022-09-26T02:25:58.297Z,97360.53
2022-09-26T02:27:00.966Z,97365.31
2022-09-26T02:28:03.917Z,97369.50
2022-09-26T02:29:07.581Z,97367.06
2022-09-26T02:30:11.069Z,97367.34
2022-09-26T02:31:21.420Z,97371.22
2022-09-26T02:32:29.814Z,97380.91
2022-09-26T02:33:32.530Z,97378.16
2022-09-26T02:34:35.234Z,97378.56
2022-09-26T02:35:56.684Z,97391.44
2022-09-26T02:37:01.515Z,97383.16
2022-09-26T02:38:05.807Z,97380.91
2022-09-26T02:39:11.351Z,97368.28
2022-09-26T02:40:14.209Z,97362.97
2022-09-26T02:41:29.227Z,97368.38
2022-09-26T02:42:58.372Z,97364.19
2022-09-26T02:44:26.101Z,97365.31
2022-09-26T02:45:45.762Z,97362.03
2022-09-26T02:47:07.107Z,97353.06
2022-09-26T02:48:15.527Z,97351.66
2022-09-26T02:49:36.842Z,97351.56
2022-09-26T02:50:58.833Z,97349.00
2022-09-26T02:52:18.416Z,97352.25
2022-09-26T02:54:01.934Z,97356.94
2022-09-26T02:55:04.522Z,97347.34
2022-09-26T02:56:34.809Z,97353.38
2022-09-26T02:57:48.341Z,97344.09
2022-09-26T02:58:59.899Z,97346.03
2022-09-26T03:00:09.778Z,97349.31
2022-09-26T03:01:29.585Z,97346.53
2022-09-26T03:03:22.274Z,97343.59
2022-09-26T03:04:43.537Z,97351.75
2022-09-26T03:05:48.695Z,97356.75
2022-09-26T03:06:55.691Z,97355.44
2022-09-26T03:08:13.564Z,97347.16
2022-09-26T03:09:19.477Z,97345.62
2022-09-26T03:10:24.451Z,97346.34
2022-09-26T03:11:29.526Z,97347.87
2022-09-26T03:12:34.260Z,97343.78
2022-09-26T03:13:39.760Z,97338.41
2022-09-26T03:14:44.399Z,97346.47
2022-09-26T03:15:53.295Z,97344.81
2022-09-26T03:16:56.402Z,97329.72
2022-09-26T03:18:01.575Z,97323.00
2022-09-26T03:19:17.358Z,97327.06
2022-09-26T03:20:21.975Z,97317.91
2022-09-26T03:21:25.714Z,97331.84
2022-09-26T03:22:28.478Z,97330.97
2022-09-26T03:23:31.234Z,97328.00
2022-09-26T03:24:37.018Z,97327.78
2022-09-26T03:25:39.748Z,97334.31
2022-09-26T03:26:43.141Z,97329.50
2022-09-26T03:27:47.408Z,97334.13
2022-09-26T03:28:52.184Z,97331.16
2022-09-26T03:29:54.963Z,97332.19
2022-09-26T03:30:57.690Z,97328.63
2022-09-26T03:32:01.583Z,97328.00
2022-09-26T03:33:04.618Z,97319.03
2022-09-26T03:34:07.396Z,97306.06
2022-09-26T03:35:10.800Z,97306.59
2022-09-26T03:36:13.624Z,97309.84
2022-09-26T03:37:17.249Z,97299.12
2022-09-26T03:38:19.910Z,97306.78
2022-09-26T03:39:22.875Z,97299.12
2022-09-26T03:40:25.759Z,97300.47
2022-09-26T03:41:28.381Z,97294.03
2022-09-26T03:42:33.969Z,97292.72
2022-09-26T03:43:37.110Z,97291.50
2022-09-26T03:44:39.870Z,97280.28
2022-09-26T03:45:42.540Z,97281.63
2022-09-26T03:46:46.071Z,97281.63
2022-09-26T03:47:48.837Z,97280.06
2022-09-26T03:48:51.759Z,97285.69
2022-09-26T03:49:54.875Z,97284.38
2022-09-26T03:51:09.356Z,97283.34
2022-09-26T03:52:12.573Z,97283.12
2022-09-26T03:53:15.180Z,97273.25
2022-09-26T03:54:18.021Z,97277.44
2022-09-26T03:55:20.822Z,97280.78
2022-09-26T03:56:23.702Z,97280.06
2022-09-26T03:57:26.487Z,97279.28
2022-09-26T03:58:29.304Z,97276.53
2022-09-26T03:59:31.942Z,97266.09
2022-09-26T04:00:34.998Z,97266.09
2022-09-26T04:01:37.920Z,97260.00
2022-09-26T04:02:40.655Z,97267.53
2022-09-26T04:03:50.075Z,97266.44
2022-09-26T04:04:53.350Z,97268.25
2022-09-26T04:05:56.096Z,97256.50
2022-09-26T04:06:59.441Z,97263.25
2022-09-26T04:08:03.246Z,97261.72
2022-09-26T04:09:06.078Z,97263.56
2022-09-26T04:10:10.019Z,97258.75
2022-09-26T04:11:16.537Z,97263.75
2022-09-26T04:12:20.932Z,97261.62
2022-09-26T04:13:49.475Z,97260.91
2022-09-26T04:14:46.308Z,97264.97
2022-09-26T04:15:56.120Z,97261.50
2022-09-26T04:16:58.751Z,97264.37
2022-09-26T04:18:01.414Z,97267.94
2022-09-26T04:19:04.473Z,97263.44
2022-09-26T04:20:07.404Z,97270.28
2022-09-26T04:21:14.326Z,97273.03
2022-09-26T04:22:17.270Z,97266.09
2022-09-26T04:23:21.659Z,97269.97
2022-09-26T04:24:24.339Z,97273.94
2022-09-26T04:25:26.981Z,97274.06
2022-09-26T04:26:29.949Z,97274.78
2022-09-26T04:27:32.517Z,97267.84
2022-09-26T04:28:35.626Z,97258.25
2022-09-26T04:29:38.328Z,97269.97
2022-09-26T04:30:41.155Z,97263.69
2022-09-26T04:31:43.991Z,97262.13
2022-09-26T04:32:46.801Z,97260.00
2022-09-26T04:33:49.873Z,97260.91
2022-09-26T04:34:52.507Z,97265.50
2022-09-26T04:35:55.848Z,97267.53
2022-09-26T04:37:00.840Z,97266.94
2022-09-26T04:38:05.057Z,97268.97
2022-09-26T04:39:07.731Z,97268.84
2022-09-26T04:40:11.439Z,97276.53
2022-09-26T04:41:20.238Z,97271.59
2022-09-26T04:42:25.312Z,97264.69
2022-09-26T04:43:27.927Z,97270.31
2022-09-26T04:44:30.587Z,97268.84
2022-09-26T04:45:33.237Z,97268.84
2022-09-26T04:46:36.259Z,97265.50
2022-09-26T04:47:39.133Z,97258.59
2022-09-26T04:48:41.872Z,97261.34
2022-09-26T04:49:44.622Z,97263.34
2022-09-26T04:50:47.778Z,97249.00
2022-09-26T04:51:50.462Z,97256.63
2022-09-26T04:52:53.212Z,97250.41
2022-09-26T04:53:56.282Z,97261.09
2022-09-26T04:54:59.013Z,97259.69
2022-09-26T04:56:02.202Z,97263.75
2022-09-26T04:57:05.906Z,97260.09
2022-09-26T04:58:08.584Z,97266.31
2022-09-26T04:59:11.237Z,97270.91
2022-09-26T05:00:14.651Z,97261.72
2022-09-26T05:01:20.103Z,97263.16
2022-09-26T05:02:22.963Z,97258.25
2022-09-26T05:03:25.657Z,97263.06
2022-09-26T05:04:28.218Z,97263.16
2022-09-26T05:05:31.481Z,97266.59
2022-09-26T05:06:34.224Z,97270.69
2022-09-26T05:07:41.113Z,97274.78
2022-09-26T05:08:49.351Z,97273.34
2022-09-26T05:09:53.367Z,97273.34
2022-09-26T05:10:57.762Z,97271.94
2022-09-26T05:12:00.489Z,97273.34
2022-09-26T05:13:03.701Z,97266.53
2022-09-26T05:14:09.107Z,97267.31
2022-09-26T05:15:11.804Z,97269.97
2022-09-26T05:16:14.739Z,97274.06
2022-09-26T05:17:17.283Z,97274.78
2022-09-26T05:18:20.403Z,97270.69
2022-09-26T05:19:23.113Z,97268.16
2022-09-26T05:20:31.924Z,97270.28
2022-09-26T05:21:35.067Z,97271.69
2022-09-26T05:22:37.903Z,97272.41
2022-09-26T05:23:58.936Z,97266.81
2022-09-26T05:25:20.629Z,97272.41
2022-09-26T05:26:46.381Z,97261.31
2022-09-26T05:27:49.162Z,97259.97
2022-09-26T05:28:54.769Z,97257.22
2022-09-26T05:29:57.373Z,97266.19
2022-09-26T05:31:00.286Z,97263.44
2022-09-26T05:32:03.064Z,97253.97
2022-09-26T05:33:06.135Z,97245.78
2022-09-26T05:34:15.490Z,97257.00
2022-09-26T05:35:21.352Z,97253.56
2022-09-26T05:36:25.174Z,97247.94
2022-09-26T05:37:27.963Z,97245.91
2022-09-26T05:38:30.559Z,97249.25
2022-09-26T05:39:51.599Z,97250.72
2022-09-26T05:40:57.507Z,97258.34
2022-09-26T05:42:00.290Z,97254.88
2022-09-26T05:43:04.139Z,97257.63
2022-09-26T05:44:06.760Z,97263.13
2022-09-26T05:45:09.941Z,97268.75
2022-09-26T05:46:12.977Z,97270.16
2022-09-26T05:47:17.262Z,97271.50
2022-09-26T05:48:20.999Z,97274.25
2022-09-26T05:49:24.145Z,97283.22
2022-09-26T05:50:27.423Z,97288.22
2022-09-26T05:51:30.172Z,97285.56
2022-09-26T05:52:32.804Z,97283.44
2022-09-26T05:53:35.765Z,97282.72
2022-09-26T05:54:38.390Z,97295.16
2022-09-26T05:55:41.473Z,97286.19
2022-09-26T05:56:44.629Z,97288.09
2022-09-26T05:57:55.335Z,97284.62
2022-09-26T05:58:57.919Z,97286.81
2022-09-26T06:00:00.718Z,97285.34
2022-09-26T06:01:06.635Z,97273.75
2022-09-26T06:02:11.230Z,97273.03
2022-09-26T06:03:15.729Z,97268.22
2022-09-26T06:04:18.471Z,97265.97
2022-09-26T06:05:21.978Z,97269.38
2022-09-26T06:06:25.235Z,97261.09
2022-09-26T06:07:27.957Z,97268.75
2022-09-26T06:08:31.301Z,97254.88
2022-09-26T06:09:33.959Z,97244.47
2022-09-26T06:10:39.152Z,97243.88
2022-09-26T06:11:41.900Z,97237.03
2022-09-26T06:12:48.793Z,97237.03
2022-09-26T06:13:53.725Z,97246.09
2022-09-26T06:14:56.565Z,97233.78
2022-09-26T06:16:08.183Z,97246.28
2022-09-26T06:17:10.980Z,97246.28
2022-09-26T06:18:13.741Z,97246.28
2022-09-26T06:19:20.608Z,97244.97
2022-09-26T06:20:25.770Z,97242.91
2022-09-26T06:21:28.391Z,97243.75
2022-09-26T06:22:34.237Z,97239.03
2022-09-26T06:23:36.801Z,97250.25
2022-09-26T06:24:39.630Z,97253.72
2022-09-26T06:25:43.166Z,97244.03
2022-09-26T06:26:45.736Z,97250.44
2022-09-26T06:27:48.990Z,97247.06
2022-09-26T06:29:00.963Z,97247.00
2022-09-26T06:30:03.791Z,97245.53
2022-09-26T06:31:15.333Z,97249.63
2022-09-26T06:32:18.013Z,97242.19
2022-09-26T06:33:21.352Z,97251.25
2022-09-26T06:34:24.217Z,97249.81
2022-09-26T06:35:26.857Z,97250.53
2022-09-26T06:36:29.569Z,97249.19
2022-09-26T06:37:32.348Z,97257.47
2022-09-26T06:38:35.987Z,97260.34
2022-09-26T06:39:38.735Z,97263.09
2022-09-26T06:40:41.517Z,97259.00
2022-09-26T06:41:44.188Z,97253.50
2022-09-26T06:42:46.947Z,97252.16
2022-09-26T06:43:50.180Z,97259.72
2022-09-26T06:44:52.821Z,97259.00
2022-09-26T06:45:55.491Z,97261.75
2022-09-26T06:47:01.141Z,97261.12
2022-09-26T06:48:03.999Z,97257.03
2022-09-26T06:49:07.047Z,97264.72
2022-09-26T06:50:10.563Z,97262.25
2022-09-26T06:51:14.405Z,97264.87
2022-09-26T06:52:16.973Z,97273.06
2022-09-26T06:53:19.735Z,97266.22
2022-09-26T06:54:22.441Z,97269.09
2022-09-26T06:55:24.984Z,97252.66
2022-09-26T06:56:27.781Z,97250.69
2022-09-26T06:57:41.828Z,97256.31
2022-09-26T06:58:44.611Z,97247.50
2022-09-26T06:59:47.239Z,97250.16
2022-09-26T07:00:50.099Z,97257.09
2022-09-26T07:01:53.380Z,97249.47
2022-09-26T07:02:56.727Z,97251.50
2022-09-26T07:03:59.525Z,97256.41
2022-09-26T07:05:03.696Z,97262.81
2022-09-26T07:06:06.475Z,97265.75
2022-09-26T07:07:09.581Z,97245.75
2022-09-26T07:08:12.623Z,97245.03
2022-09-26T07:09:15.459Z,97245.03
2022-09-26T07:10:19.499Z,97252.69
2022-09-26T07:12:49.023Z,97246.75
2022-09-26T07:13:53.275Z,97241.59
2022-09-26T07:14:56.013Z,97242.59
2022-09-26T07:16:01.673Z,97248.81
2022-09-26T07:17:04.390Z,97245.44
2022-09-26T07:18:07.283Z,97251.56
2022-09-26T07:19:12.337Z,97250.41
2022-09-26T07:20:19.328Z,97255.22
2022-09-26T07:21:21.989Z,97251.13
2022-09-26T07:22:24.773Z,97252.47
2022-09-26T07:23:27.295Z,97245.53
2022-09-26T07:24:30.029Z,97252.03
2022-09-26T07:25:33.604Z,97249.37
2022-09-26T07:26:36.435Z,97248.56
2022-09-26T07:27:40.586Z,97252.16
2022-09-26T07:28:43.293Z,97252.94
2022-09-26T07:29:47.778Z,97259.78
2022-09-26T07:30:50.492Z,97262.72
2022-09-26T07:31:53.281Z,97264.34
2022-09-26T07:33:03.935Z,97264.78
2022-09-26T07:34:08.961Z,97266.63
2022-09-26T07:35:12.222Z,97271.53
2022-09-26T07:36:16.042Z,97277.12
2022-09-26T07:37:19.024Z,97272.22
2022-09-26T07:38:22.018Z,97268.56
2022-09-26T07:39:24.714Z,97264.22
2022-09-26T07:40:28.437Z,97275.16
2022-09-26T07:41:31.273Z,97282.47
2022-09-26T07:42:34.438Z,97280.69
2022-09-26T07:44:21.710Z,97288.06
2022-09-26T07:46:41.087Z,97289.84
2022-09-26T07:48:02.106Z,97291.06
2022-09-26T07:49:23.397Z,97295.78
2022-09-26T07:50:25.989Z,97299.09
2022-09-26T07:51:28.609Z,97303.41
2022-09-26T07:52:31.263Z,97298.16
2022-09-26T07:53:34.103Z,97300.72
2022-09-26T07:54:37.150Z,97299.28
2022-09-26T07:55:59.884Z,97300.53
2022-09-26T07:57:05.020Z,97299.38
2022-09-26T07:58:07.700Z,97296.25
2022-09-26T07:59:10.351Z,97296.06
2022-09-26T08:00:15.065Z,97295.53
2022-09-26T08:01:18.538Z,97292.69
2022-09-26T08:02:35.930Z,97289.94
2022-09-26T08:03:43.325Z,97295.53
2022-09-26T08:04:45.929Z,97292.16
2022-09-26T08:05:48.599Z,97297.75
2022-09-26T08:06:51.427Z,97292.97
2022-09-26T08:07:54.170Z,97297.97
2022-09-26T08:08:58.336Z,97290.19
2022-09-26T08:10:03.425Z,97290.91
2022-09-26T08:11:15.777Z,97291.81
2022-09-26T08:12:18.502Z,97287.00
2022-09-26T08:13:21.193Z,97281.41
2022-09-26T08:14:23.852Z,97283.53
2022-09-26T08:15:26.498Z,97285.69
2022-09-26T08:16:29.656Z,97291.22
2022-09-26T08:17:34.952Z,97290.66
2022-09-26T08:18:37.654Z,97286.72
2022-09-26T08:19:40.430Z,97285.56
2022-09-26T08:20:47.418Z,97284.84
2022-09-26T08:21:50.201Z,97289.03
2022-09-26T08:22:55.617Z,97293.13
2022-09-26T08:23:58.259Z,97284.41
2022-09-26T08:25:00.903Z,97288.03
2022-09-26T08:26:07.382Z,97289.38
2022-09-26T08:27:10.042Z,97292.94
2022-09-26T08:28:13.111Z,97297.03
2022-09-26T08:29:15.695Z,97295.16
2022-09-26T08:30:18.304Z,97293.81
2022-09-26T08:31:21.101Z,97296.94
2022-09-26T08:32:24.051Z,97298.81
2022-09-26T08:33:27.332Z,97299.50
2022-09-26T08:34:32.288Z,97296.94
2022-09-26T08:35:41.516Z,97293.41
2022-09-26T08:36:44.192Z,97294.72
2022-09-26T08:37:47.232Z,97294.63
2022-09-26T08:38:50.504Z,97295.34
2022-09-26T08:39:53.399Z,97292.69
2022-09-26T08:41:02.120Z,97297.31
2022-09-26T08:42:07.667Z,97293.94
2022-09-26T08:43:41.644Z,97297.22
2022-09-26T08:45:02.771Z,97296.59
2022-09-26T08:46:53.209Z,97302.28
2022-09-26T08:48:27.227Z,97293.94
2022-09-26T08:49:54.788Z,97294.13
2022-09-26T08:51:07.320Z,97298.47
2022-09-26T08:52:37.349Z,97303.91
2022-09-26T08:53:50.806Z,97299.53
2022-09-26T08:54:56.672Z,97306.41
2022-09-26T08:56:01.471Z,97304.28
2022-09-26T08:57:16.094Z,97298.13
2022-09-26T08:58:32.273Z,97311.28
2022-09-26T08:59:43.977Z,97307.19
2022-09-26T09:00:51.800Z,97304.63
2022-09-26T09:01:59.770Z,97306.75
2022-09-26T09:03:17.680Z,97302.13
2022-09-26T09:04:53.666Z,97308.72
2022-09-26T09:06:04.958Z,97311.47
2022-09-26T09:07:23.034Z,97308.78
2022-09-26T09:08:48.480Z,97310.50
2022-09-26T09:09:54.843Z,97317.44
2022-09-26T09:11:20.661Z,97311.37
2022-09-26T09:12:48.096Z,97315.66
2022-09-26T09:14:26.954Z,97312.34
2022-09-26T09:15:54.367Z,97311.91
2022-09-26T09:17:10.256Z,97310.81
2022-09-26T09:18:31.885Z,97309.91
2022-09-26T09:19:59.355Z,97303.84
2022-09-26T09:21:13.637Z,97305.53
2022-09-26T09:22:26.656Z,97307.38
2022-09-26T09:23:34.754Z,97305.03
2022-09-26T09:24:58.746Z,97305.03
2022-09-26T09:28:15.836Z,97310.81
2022-09-26T09:29:34.323Z,97311.34
2022-09-26T09:30:56.815Z,97309.31
2022-09-26T09:32:03.355Z,97308.59
2022-09-26T09:34:00.626Z,97309.22
2022-09-26T09:35:03.781Z,97306.66
2022-09-26T09:36:11.034Z,97309.78
2022-09-26T09:37:21.994Z,97297.56
2022-09-26T09:38:30.409Z,97311.72
2022-09-26T09:39:40.619Z,97304.19
2022-09-26T09:40:51.120Z,97301.06
2022-09-26T09:41:58.566Z,97303.81
2022-09-26T09:43:15.620Z,97302.72
2022-09-26T09:44:46.401Z,97295.59
2022-09-26T09:45:51.801Z,97289.53
2022-09-26T09:46:54.507Z,97288.25
2022-09-26T09:47:58.259Z,97294.66
2022-09-26T09:49:10.160Z,97296.06
2022-09-26T09:50:36.636Z,97288.72
2022-09-26T09:51:57.722Z,97298.44
2022-09-26T09:53:27.709Z,97295.13
2022-09-26T09:54:45.364Z,97294.56
2022-09-26T09:55:53.290Z,97290.44
2022-09-26T09:57:26.510Z,97291.09
2022-09-26T09:58:35.174Z,97290.59
2022-09-26T09:59:43.507Z,97285.94
2022-09-26T10:01:18.774Z,97284.50
2022-09-26T10:02:50.828Z,97289.97
2022-09-26T10:04:03.619Z,97288.22
2022-09-26T10:05:30.796Z,97287.44
2022-09-26T10:06:45.314Z,97281.22
2022-09-26T10:07:54.191Z,97281.28
2022-09-26T10:08:56.944Z,97281.38
2022-09-26T10:09:59.540Z,97283.72
2022-09-26T10:11:21.368Z,97286.91
2022-09-26T10:12:29.033Z,97285.22
2022-09-26T10:13:33.115Z,97279.69
2022-09-26T10:14:55.590Z,97287.63
2022-09-26T10:16:05.375Z,97277.88
2022-09-26T10:17:10.902Z,97277.88
2022-09-26T10:18:25.839Z,97282.22
2022-09-26T10:19:37.675Z,97276.28
2022-09-26T10:20:57.474Z,97280.69
2022-09-26T10:22:00.124Z,97278.31
2022-09-26T10:23:09.261Z,97282.44
2022-09-26T10:24:27.799Z,97285.25
2022-09-26T10:25:30.501Z,97284.12
2022-09-26T10:26:35.226Z,97280.03
2022-09-26T10:27:40.602Z,97285.06
2022-09-26T10:28:59.302Z,97284.03
2022-09-26T10:30:26.048Z,97283.34
2022-09-26T10:31:42.889Z,97280.44
2022-09-26T10:32:52.905Z,97280.13
2022-09-26T10:34:01.215Z,97281.25
2022-09-26T10:35:19.685Z,97277.59
2022-09-26T10:36:31.256Z,97281.25
2022-09-26T10:37:37.286Z,97281.66
2022-09-26T10:39:10.904Z,97284.09
2022-09-26T10:40:46.077Z,97280.41
2022-09-26T10:41:49.386Z,97287.03
2022-09-26T10:42:52.122Z,97289.41
2022-09-26T10:43:56.611Z,97294.78
2022-09-26T10:45:13.909Z,97290.16
2022-09-26T10:46:20.928Z,97290.28
2022-09-26T10:47:26.773Z,97295.56
2022-09-26T10:48:58.087Z,97282.47
2022-09-26T10:50:10.695Z,97288.22
2022-09-26T10:51:38.199Z,97276.34
2022-09-26T10:52:47.476Z,97276.81
2022-09-26T10:53:55.192Z,97273.75
2022-09-26T10:55:06.239Z,97279.19
2022-09-26T10:56:14.846Z,97272.09
2022-09-26T10:57:21.840Z,97276.19
2022-09-26T10:58:29.870Z,97269.72
2022-09-26T10:59:36.341Z,97280.66
2022-09-26T11:00:43.824Z,97294.03
2022-09-26T11:01:50.654Z,97286.75
2022-09-26T11:02:53.410Z,97293.09
2022-09-26T11:04:10.425Z,97289.22
2022-09-26T11:05:35.531Z,97290.31
2022-09-26T11:06:48.298Z,97289.78
2022-09-26T11:07:52.661Z,97292.72
2022-09-26T11:09:02.584Z,97300.34
2022-09-26T11:10:22.749Z,97299.06
2022-09-26T11:11:26.852Z,97296.84
2022-09-26T11:12:33.732Z,97297.34
2022-09-26T11:13:50.283Z,97300.84
2022-09-26T11:15:14.073Z,97296.59
2022-09-26T11:16:20.687Z,97304.91
2022-09-26T11:17:39.633Z,97308.75
2022-09-26T11:18:43.270Z,97313.59
2022-09-26T11:19:57.767Z,97313.44
2022-09-26T11:21:28.165Z,97316.16
2022-09-26T11:22:38.094Z,97312.72
2022-09-26T11:23:45.227Z,97313.62
2022-09-26T11:25:14.951Z,97310.16
2022-09-26T11:26:36.250Z,97305.31
2022-09-26T11:27:49.193Z,97307.59
2022-09-26T11:29:04.323Z,97305.78
2022-09-26T11:30:19.576Z,97306.53
2022-09-26T11:31:43.139Z,97307.69
2022-09-26T11:32:50.247Z,97301.66
2022-09-26T11:33:54.389Z,97298.75
2022-09-26T11:35:03.248Z,97300.81
2022-09-26T11:36:29.835Z,97295.19
2022-09-26T11:38:13.872Z,97293.84
2022-09-26T11:39:23.241Z,97290.44
2022-09-26T11:40:38.084Z,97297.16
2022-09-26T11:42:18.881Z,97287.78
2022-09-26T11:43:45.209Z,97285.97
2022-09-26T11:45:14.346Z,97291.97
2022-09-26T11:46:41.991Z,97284.44
2022-09-26T11:48:09.271Z,97285.88
2022-09-26T11:49:59.418Z,97288.97
2022-09-26T11:51:43.576Z,97285.44
2022-09-26T11:52:59.417Z,97286.75
2022-09-26T11:54:30.035Z,97290.81
2022-09-26T11:55:41.454Z,97296.25
2022-09-26T11:57:02.878Z,97286.97
2022-09-26T11:58:05.514Z,97292.97
2022-09-26T11:59:34.896Z,97291.06
2022-09-26T12:01:00.672Z,97292.06
2022-09-26T12:02:33.698Z,97300.69
2022-09-26T12:03:53.902Z,97294.06
2022-09-26T12:05:13.875Z,97292.59
2022-09-26T12:06:27.887Z,97294.47
2022-09-26T12:07:43.960Z,97299.00
2022-09-26T12:09:08.221Z,97297.38
2022-09-26T12:10:43.270Z,97292.16
2022-09-26T12:12:10.845Z,97289.59
2022-09-26T12:13:35.476Z,97286.72
2022-09-26T12:14:50.742Z,97281.56
2022-09-26T12:16:13.115Z,97278.88
2022-09-26T12:17:49.891Z,97274.03
2022-09-26T12:19:21.117Z,97268.88
2022-09-26T12:20:35.260Z,97272.25
2022-09-26T12:22:24.241Z,97271.09
2022-09-26T12:23:43.952Z,97259.66
2022-09-26T12:25:20.373Z,97249.91
2022-09-26T12:26:23.792Z,97252.00
2022-09-26T12:27:43.925Z,97252.38
2022-09-26T12:29:23.908Z,97247.81
2022-09-26T12:30:52.590Z,97251.19
2022-09-26T12:32:10.025Z,97250.66
2022-09-26T12:35:07.484Z,97256.28
2022-09-26T12:36:40.683Z,97239.44
2022-09-26T12:38:07.325Z,97240.03
2022-09-26T12:39:34.924Z,97239.44
2022-09-26T12:40:49.953Z,97243.50
2022-09-26T12:42:25.580Z,97247.53
2022-09-26T12:44:09.557Z,97249.53
2022-09-26T12:45:39.089Z,97246.09
2022-09-26T12:46:49.158Z,97242.63
2022-09-26T12:48:09.961Z,97239.72
2022-09-26T12:49:21.654Z,97246.62
2022-09-26T12:50:31.305Z,97243.94
2022-09-26T12:51:55.721Z,97240.47
2022-09-26T12:53:18.514Z,97236.94
2022-09-26T12:54:44.097Z,97232.53
2022-09-26T12:56:09.357Z,97229.28
2022-09-26T12:57:38.690Z,97219.53
2022-09-26T12:59:07.696Z,97216.59
2022-09-26T13:00:23.384Z,97219.03
2022-09-26T13:01:43.664Z,97215.47
2022-09-26T13:03:08.103Z,97218.37
2022-09-26T13:04:17.838Z,97213.41
2022-09-26T13:05:38.183Z,97212.22
2022-09-26T13:07:18.985Z,97212.81
2022-09-26T13:08:57.553Z,97216.28
2022-09-26T13:10:07.601Z,97220.84
2022-09-26T13:11:32.793Z,97217.66
2022-09-26T13:12:50.696Z,97210.94
2022-09-26T13:14:27.329Z,97218.94
2022-09-26T13:15:40.231Z,97217.97
2022-09-26T13:16:49.293Z,97222.16
2022-09-26T13:17:59.284Z,97221.03
2022-09-26T13:19:47.157Z,97223.84
2022-09-26T13:20:55.414Z,97223.72
2022-09-26T13:22:03.103Z,97221.72
2022-09-26T13:23:18.224Z,97219.13
2022-09-26T13:24:33.083Z,97220.72
2022-09-26T13:25:49.922Z,97215.69
2022-09-26T13:27:09.166Z,97219.69
2022-09-26T13:28:14.301Z,97219.13
2022-09-26T13:29:29.361Z,97217.59
2022-09-26T13:30:44.941Z,97225.22
2022-09-26T13:31:56.261Z,97223.25
2022-09-26T13:33:07.979Z,97228.94
2022-09-26T13:34:17.122Z,97226.81
2022-09-26T13:35:26.211Z,97221.91
2022-09-26T13:36:31.561Z,97224.56
2022-09-26T13:38:14.430Z,97218.19
2022-09-26T13:39:29.508Z,97229.53
2022-09-26T13:40:41.650Z,97226.59
2022-09-26T13:41:56.769Z,97225.72
2022-09-26T13:43:43.809Z,97222.94
2022-09-26T13:45:14.837Z,97221.38
2022-09-26T13:46:29.302Z,97219.72
2022-09-26T13:47:49.387Z,97226.50
2022-09-26T13:49:34.082Z,97224.25
2022-09-26T13:51:14.014Z,97222.91
2022-09-26T13:52:26.898Z,97232.59
2022-09-26T13:53:40.635Z,97224.38
2022-09-26T13:54:44.233Z,97223.69
2022-09-26T13:56:25.869Z,97233.38
2022-09-26T13:57:34.889Z,97225.69
2022-09-26T13:58:40.579Z,97233.28